createdAt,value
2023-03-12T00:01:29.920Z,46.5
2023-03-12T00:06:26.439Z,57.4
2023-03-12T00:11:26.442Z,59.7
2023-03-12T00:16:26.506Z,90.4
2023-03-12T00:21:26.442Z,74.4
2023-03-12T00:26:26.608Z,58.8
2023-03-12T00:31:26.374Z,37.8
2023-03-12T00:36:26.463Z,30.9
2023-03-12T00:41:26.541Z,20.0
2023-03-12T00:46:26.421Z,22.5
2023-03-12T00:51:26.378Z,21.1
2023-03-12T00:56:26.486Z,26.3
2023-03-12T01:01:26.348Z,19.5
2023-03-12T01:06:26.298Z,27.0
2023-03-12T01:11:26.452Z,27.9
2023-03-12T01:16:26.379Z,46.1
2023-03-12T01:21:26.280Z,29.5
2023-03-12T01:26:26.418Z,22.0
2023-03-12T01:31:26.411Z,25.8
2023-03-12T01:36:26.280Z,23.1
2023-03-12T01:41:26.495Z,29.8
2023-03-12T01:46:26.268Z,42.3
2023-03-12T01:51:26.256Z,33.1
2023-03-12T01:56:26.334Z,32.0
2023-03-12T02:01:26.606Z,32.8
2023-03-12T02:06:26.258Z,38.4
2023-03-12T02:11:26.220Z,40.6
2023-03-12T02:16:26.249Z,29.8
2023-03-12T02:21:26.235Z,20.7
2023-03-12T02:26:26.317Z,22.4
2023-03-12T02:31:26.150Z,27.9
2023-03-12T02:36:26.162Z,32.5
2023-03-12T02:41:26.265Z,30.5
2023-03-12T02:46:26.193Z,25.5
2023-03-12T02:51:26.102Z,28.0
2023-03-12T02:56:26.231Z,27.8
2023-03-12T03:01:26.191Z,23.7
2023-03-12T03:06:26.093Z,23.6
2023-03-12T03:11:26.202Z,32.2
2023-03-12T03:16:26.134Z,39.1
2023-03-12T03:21:26.187Z,39.3
2023-03-12T03:26:26.274Z,43.9
2023-03-12T03:31:26.207Z,32.1
2023-03-12T03:36:26.048Z,26.3
2023-03-12T03:41:26.320Z,36.1
2023-03-12T03:46:26.102Z,25.8
2023-03-12T03:51:26.044Z,26.8
2023-03-12T03:56:26.119Z,24.1
2023-03-12T04:01:26.023Z,25.2
2023-03-12T04:06:26.019Z,24.6
2023-03-12T04:11:26.081Z,22.9
2023-03-12T04:16:26.195Z,26.9
2023-03-12T04:21:25.999Z,21.2
2023-03-12T04:26:26.104Z,23.1
2023-03-12T04:31:26.065Z,20.4
2023-03-12T04:36:25.944Z,21.1
2023-03-12T04:41:26.031Z,19.3
2023-03-12T04:46:25.956Z,17.7
2023-03-12T04:51:25.920Z,19.8
2023-03-12T04:56:26.040Z,25.0
2023-03-12T05:01:25.910Z,27.1
2023-03-12T05:06:25.876Z,28.9
2023-03-12T05:11:26.235Z,28.5
2023-03-12T05:16:25.848Z,22.5
2023-03-12T05:21:25.890Z,24.6
2023-03-12T05:26:25.991Z,30.8
2023-03-12T05:31:25.887Z,45.1
2023-03-12T05:36:25.858Z,39.3
2023-03-12T05:41:25.951Z,37.0
2023-03-12T05:46:25.969Z,38.3
2023-03-12T05:51:25.900Z,37.4
2023-03-12T05:56:25.983Z,34.2
2023-03-12T06:01:25.868Z,30.4
2023-03-12T06:06:25.814Z,28.0
2023-03-12T06:11:25.942Z,22.7
2023-03-12T06:16:25.771Z,21.0
2023-03-12T06:21:25.858Z,24.3
2023-03-12T06:26:25.887Z,29.2
2023-03-12T06:31:25.807Z,21.3
2023-03-12T06:36:26.522Z,22.8
2023-03-12T06:41:26.462Z,174.0
2023-03-12T06:46:26.479Z,111.5
2023-03-12T06:51:26.454Z,153.3
2023-03-12T06:56:25.684Z,219.2
2023-03-12T07:01:25.703Z,60.6
2023-03-12T07:06:25.836Z,36.8
2023-03-12T07:11:25.644Z,25.8
2023-03-12T07:16:25.690Z,63.5
2023-03-12T07:21:25.828Z,27.8
2023-03-12T07:26:25.645Z,34.9
2023-03-12T07:31:26.427Z,28.4
2023-03-12T07:36:25.655Z,122.7
2023-03-12T07:41:25.694Z,51.6
2023-03-12T07:46:25.900Z,36.3
2023-03-12T07:51:25.685Z,32.0
2023-03-12T07:56:25.735Z,14.0
2023-03-12T08:01:25.804Z,18.8
2023-03-12T08:06:25.651Z,12.4
2023-03-12T08:11:25.636Z,13.4
2023-03-12T08:16:25.898Z,18.1
2023-03-12T08:21:25.684Z,10.1
2023-03-12T08:26:25.623Z,14.4
2023-03-12T08:31:25.776Z,23.9
2023-03-12T08:36:25.651Z,19.9
2023-03-12T08:41:25.533Z,32.4
2023-03-12T08:46:25.809Z,17.9
2023-03-12T08:51:25.566Z,13.2
2023-03-12T08:56:25.637Z,11.5
2023-03-12T09:01:25.778Z,9.9
2023-03-12T09:06:25.597Z,9.4
2023-03-12T09:11:25.501Z,14.6
2023-03-12T09:16:25.777Z,16.2
2023-03-12T09:21:25.418Z,15.2
2023-03-12T09:26:25.416Z,9.3
2023-03-12T09:31:25.619Z,71.5
2023-03-12T09:36:25.448Z,17.4
2023-03-12T09:41:25.525Z,16.8
2023-03-12T09:46:25.728Z,17.6
2023-03-12T09:51:25.545Z,15.7
2023-03-12T09:56:25.461Z,33.3
2023-03-12T10:01:25.535Z,75.0
2023-03-12T10:06:25.479Z,41.7
2023-03-12T10:11:25.608Z,47.4
2023-03-12T10:16:25.385Z,22.9
2023-03-12T10:21:25.346Z,19.2
2023-03-12T10:26:25.595Z,14.1
2023-03-12T10:31:25.569Z,23.1
2023-03-12T10:36:25.365Z,15.0
2023-03-12T10:41:25.807Z,33.3
2023-03-12T10:46:25.294Z,14.2
2023-03-12T10:51:25.393Z,16.9
2023-03-12T10:56:25.510Z,20.1
2023-03-12T11:01:25.388Z,17.4
2023-03-12T11:06:25.301Z,9.2
2023-03-12T11:11:25.384Z,6.7
2023-03-12T11:16:25.365Z,6.9
2023-03-12T11:21:25.223Z,7.9
2023-03-12T11:26:25.288Z,24.6
2023-03-12T11:31:25.280Z,8.8
2023-03-12T11:36:25.171Z,32.8
2023-03-12T11:41:25.443Z,15.3
2023-03-12T11:46:25.322Z,20.5
2023-03-12T11:51:25.293Z,16.2
2023-03-12T11:56:25.358Z,28.5
2023-03-12T12:01:25.128Z,49.6
2023-03-12T12:06:36.009Z,37.3
2023-03-12T12:11:25.301Z,30.2
2023-03-12T12:16:25.277Z,18.6
2023-03-12T12:21:25.118Z,17.8
2023-03-12T12:26:40.409Z,19.4
2023-03-12T12:31:25.051Z,21.2
2023-03-12T12:36:25.236Z,11.4
2023-03-12T12:41:25.166Z,43.1
2023-03-12T12:46:25.236Z,16.1
2023-03-12T12:51:25.262Z,13.9
2023-03-12T12:56:25.161Z,11.2
2023-03-12T13:01:35.734Z,9.4
2023-03-12T13:06:25.039Z,6.5
2023-03-12T13:11:25.328Z,8.6
2023-03-12T13:16:25.211Z,12.7
2023-03-12T13:21:25.254Z,22.0
2023-03-12T13:26:25.010Z,16.3
2023-03-12T13:31:25.055Z,39.0
2023-03-12T13:36:25.159Z,37.3
2023-03-12T13:41:26.522Z,31.5
2023-03-12T13:46:26.422Z,11.6
2023-03-12T13:51:24.995Z,14.1
2023-03-12T13:56:25.006Z,15.8
2023-03-12T14:01:26.784Z,18.1
2023-03-12T14:06:25.116Z,10.1
2023-03-12T14:11:26.369Z,21.5
2023-03-12T14:16:31.288Z,14.6
2023-03-12T14:21:24.907Z,21.5
2023-03-12T14:26:24.967Z,11.1
2023-03-12T14:31:26.231Z,12.3
2023-03-12T14:36:25.168Z,9.4
2023-03-12T14:41:28.205Z,12.3
2023-03-12T14:46:25.010Z,13.2
2023-03-12T14:51:25.630Z,22.1
2023-03-12T14:56:25.540Z,124.1
2023-03-12T15:01:25.684Z,108.3
2023-03-12T15:06:25.558Z,191.2
2023-03-12T15:11:25.126Z,183.0
2023-03-12T15:16:28.334Z,76.0
2023-03-12T15:21:25.896Z,64.7
2023-03-12T15:26:25.877Z,29.6
2023-03-12T15:31:26.309Z,11.9
2023-03-12T15:36:27.073Z,62.1
2023-03-12T15:41:26.856Z,154.0
2023-03-12T15:46:26.192Z,164.9
2023-03-12T15:51:26.151Z,32.5
2023-03-12T15:56:32.030Z,38.0
2023-03-12T16:01:25.851Z,17.6
2023-03-12T16:06:25.965Z,14.2
2023-03-12T16:11:25.790Z,28.5
2023-03-12T16:16:25.895Z,25.6
2023-03-12T16:21:26.169Z,22.3
2023-03-12T16:26:26.977Z,18.8
2023-03-12T16:31:25.765Z,19.9
2023-03-12T16:36:25.951Z,22.4
2023-03-12T16:41:26.054Z,18.8
2023-03-12T16:46:25.739Z,20.3
2023-03-12T16:51:25.752Z,15.5
2023-03-12T16:56:25.868Z,23.9
2023-03-12T17:01:25.783Z,31.8
2023-03-12T17:06:25.943Z,29.3
2023-03-12T17:11:27.040Z,20.8
2023-03-12T17:16:25.798Z,25.2
2023-03-12T17:21:25.598Z,18.7
2023-03-12T17:26:25.580Z,23.1
2023-03-12T17:31:26.486Z,27.0
2023-03-12T17:36:25.647Z,27.6
2023-03-12T17:41:27.200Z,24.2
2023-03-12T17:46:25.667Z,30.1
2023-03-12T17:51:25.710Z,22.7
2023-03-12T17:56:25.600Z,25.4
2023-03-12T18:01:25.706Z,18.8
2023-03-12T18:06:25.711Z,20.8
2023-03-12T18:11:25.458Z,21.9
2023-03-12T18:16:25.600Z,24.7
2023-03-12T18:21:25.917Z,26.3
2023-03-12T18:26:25.677Z,26.0
2023-03-12T18:31:25.546Z,19.5
2023-03-12T18:36:25.567Z,19.3
2023-03-12T18:41:25.758Z,15.8
2023-03-12T18:46:26.228Z,19.1
2023-03-12T18:51:25.740Z,13.7
2023-03-12T18:56:26.362Z,12.1
2023-03-12T19:01:25.880Z,16.3
2023-03-12T19:06:26.197Z,15.8
2023-03-12T19:11:25.591Z,12.5
2023-03-12T19:16:25.877Z,14.2
2023-03-12T19:21:25.468Z,15.4
2023-03-12T19:26:25.394Z,23.2
2023-03-12T19:31:25.723Z,32.0
2023-03-12T19:36:25.394Z,34.3
2023-03-12T19:41:25.488Z,20.5
2023-03-12T19:46:25.657Z,13.1
2023-03-12T19:51:25.597Z,11.5
2023-03-12T19:56:25.295Z,15.5
2023-03-12T20:01:25.456Z,15.9
2023-03-12T20:06:25.445Z,17.1
2023-03-12T20:11:26.117Z,21.4
2023-03-12T20:16:25.629Z,21.6
2023-03-12T20:21:25.641Z,19.4
2023-03-12T20:26:25.322Z,19.4
2023-03-12T20:31:25.309Z,41.7
2023-03-12T20:36:25.729Z,47.2
2023-03-12T20:41:25.274Z,32.1
2023-03-12T20:46:25.264Z,32.1
2023-03-12T20:51:26.318Z,34.4
2023-03-12T20:56:25.185Z,34.3
2023-03-12T21:01:25.293Z,32.0
2023-03-12T21:06:25.244Z,29.6
2023-03-12T21:11:25.249Z,23.7
2023-03-12T21:16:25.392Z,26.8
2023-03-12T21:21:25.175Z,28.6
2023-03-12T21:26:25.214Z,27.3
2023-03-12T21:31:25.362Z,25.5
2023-03-12T21:36:25.332Z,26.5
2023-03-12T21:41:25.207Z,29.2
2023-03-12T21:46:25.344Z,27.8
2023-03-12T21:51:26.429Z,27.9
2023-03-12T21:56:25.090Z,32.2
2023-03-12T22:01:25.199Z,39.5
2023-03-12T22:06:25.031Z,31.8
2023-03-12T22:11:25.033Z,34.9
2023-03-12T22:16:25.223Z,32.2
2023-03-12T22:21:25.011Z,34.4
2023-03-12T22:26:25.082Z,29.4
2023-03-12T22:31:25.175Z,34.9
2023-03-12T22:36:25.017Z,34.9
2023-03-12T22:41:25.006Z,32.8
2023-03-12T22:46:25.185Z,32.0
2023-03-12T22:51:25.102Z,29.1
2023-03-12T22:56:25.055Z,26.3
2023-03-12T23:01:25.252Z,27.0
2023-03-12T23:06:25.062Z,28.7
2023-03-12T23:11:24.920Z,28.2
2023-03-12T23:16:25.230Z,28.8
2023-03-12T23:21:25.076Z,29.9
2023-03-12T23:26:25.055Z,27.2
2023-03-12T23:31:24.946Z,25.2
2023-03-12T23:36:25.156Z,22.4
2023-03-12T23:41:24.981Z,25.2
2023-03-12T23:46:24.936Z,21.5
2023-03-12T23:51:24.889Z,19.8
2023-03-12T23:56:24.838Z,16.2
